High Point, NC

11:34 PM EST on November 25, 2014 (GMT -0500)
Carol Bay | Change Station
CLOSE
Current Station
Personal Weather Station
Location: High Point, NC
Elevation: 853 ft
Nearby Weather Stations

Elev 853 ft 36.02 °N, 79.98 °W | Updated 3 seconds ago

Rain
Rain
47.0 °F
Feels Like 47 °F
N
0.0
Wind Variable Wind from NE
Gusts 5.0 mph

Today
High -- | Low -- °F
--% Chance of Precip.
Yesterday
High -- | Low -- °F
Precip. -- in
7:06 AM 5:07 PM
Waxing Crescent, 16% visible
Pressure 30.07 in
Visibility 10.0 miles
Clouds Few 3500 ft
Mostly Cloudy 6000 ft
Overcast 10000 ft
Windchill 47 °F
Dew Point 45 °F
Humidity 94%
Rainfall 0.05 in
Snow Depth Not available.
UV 0 out of 12
Pollen 1.50 out of 12
Air Quality Not available.
Flu Activity Not available.
METAR KGSO 260354Z 06004KT 10SM -RA FEW035 BKN060 OVC100 09/06 A3008 RMK AO2 SLP183 P0000 T00940056

More Conditions Fewer Conditions

Pressure 30.07 in
Visibility 10.0 miles
Clouds Few 3500 ft
Mostly Cloudy 6000 ft
Overcast 10000 ft
Windchill 47 °F
Dew Point 45 °F
Humidity 94%
Rainfall 0.05 in
Snow Depth Not available.
UV 0 out of 12
Pollen 1.50 out of 12
Air Quality Not available.
Flu Activity Not available.
METAR KGSO 260354Z 06004KT 10SM -RA FEW035 BKN060 OVC100 09/06 A3008 RMK AO2 SLP183 P0000 T00940056

More Conditions Fewer Conditions

10-Day Weather Forecast

Almanac

Astronomy

Nov. 25, 2014 Rise Set
Actual Time
Civil Twilight
Nautical Twilight
Astronomical Twilight
Moon
Length of Visible Light
Length of Day
Tomorrow will be .
, % of the Moon is Illuminated

Today's Extremes

State Highs State Lows

Community

WunderPhotos

Upload Photos

1,773,684 photos uploaded!

WunderBlogs® & News

Nearby

Air Quality

  Air Quality AQ Index Pollutant
Not available.

Snow Depth

Station Depth Elevation

Earthquake Activity

City Distance Mag. Time & Date
Minimum magnitude displayed is 2.5.

Coastal Water Temperatures

Place Temperature

Nearby Weather Stations